Latest Weather Observations for Adelaide Airport

IDS60801

Issued at 11:31 am CDT Sunday 18 February 2018 (issued every 30 minutes, with the page automatically refreshed every 10 minutes)

About weather observations | Map of weather stations | Latest weather observations for SA | Other Formats
Station Details ID: 023034 Name: ADELAIDE AIRPORT Lat: -34.95 Lon: 138.52 Height: 2.0 m
Data from the previous 72 hours. | See also: Recent months at Adelaide Airport
Date/Time
CDT
Temp
°C
App
Temp
°C
Dew
Point
°C
Rel
Hum
%
Delta-T
°C
Wind Press
QNH
hPa
Press
MSL
hPa
Rain since
9am
mm
Dir  Spd
km/h
Gust
km/h
Spd
kts
Gust
kts
18/11:00am 25.5 23.4 11.1 40 8.1 S 13 19 7 10 1012.3 1012.3 0.0
18/10:30am 25.7 22.5 11.4 40 8.1 SSW 19 26 10 14 1012.4 1012.4 0.0
18/10:00am 24.6 22.9 11.3 43 7.5 S 11 17 6 9 1011.6 1011.6 0.0
18/09:30am 24.3 23.9 12.4 47 6.8 ESE 6 7 3 4 1011.4 1011.4 0.0
18/09:00am 23.0 23.0 12.3 51 6.1 ESE 4 7 2 4 1011.3 1011.3 0.0
18/08:30am 21.2 20.7 12.8 58 4.8 SE 7 9 4 5 1010.8 1010.8 0.0
18/08:00am 19.5 20.5 13.2 67 3.6 CALM 0 0 0 0 1010.6 1010.6 0.0
18/07:30am 17.7 17.4 13.3 75 2.5 E 7 9 4 5 1010.0 1010.0 0.0
18/07:00am 17.3 16.5 12.8 75 2.5 SE 9 11 5 6 1009.4 1009.4 0.0
18/06:30am 17.5 17.0 12.5 72 2.8 SSE 7 9 4 5 1009.0 1009.0 0.0
18/06:00am 16.3 15.8 12.5 78 2.1 SSE 7 9 4 5 1008.6 1008.6 0.0
18/05:30am 17.3 18.1 12.6 74 2.6 CALM 0 7 0 4 1008.5 1008.5 0.0
18/05:00am 16.9 16.3 12.4 75 2.5 ENE 7 9 4 5 1008.7 1008.7 0.0
18/04:30am 17.3 17.0 12.6 74 2.6 E 6 7 3 4 1009.0 1009.0 0.0
18/04:00am 17.8 17.8 12.4 70 3.0 SSE 4 7 2 4 1009.1 1009.1 0.0
18/03:30am 17.6 17.1 12.8 73 2.7 SSE 7 9 4 5 1009.0 1009.0 0.0
18/03:00am 18.2 17.8 12.9 71 3.0 S 7 9 4 5 1009.4 1009.4 0.0
18/02:30am 18.1 17.4 13.1 72 2.8 S 9 9 5 5 1009.4 1009.4 0.0
18/02:00am 18.0 17.3 13.2 73 2.7 S 9 11 5 6 1009.9 1009.9 0.0
18/01:30am 18.4 18.4 13.7 74 2.7 S 6 9 3 5 1010.2 1010.2 0.0
18/01:00am 18.4 19.6 13.9 75 2.6 CALM 0 0 0 0 1010.3 1010.3 0.0
18/12:30am 18.2 19.3 13.4 73 2.7 CALM 0 0 0 0 1010.6 1010.6 0.0
18/12:00am 18.7 19.9 13.8 73 2.8 CALM 0 0 0 0 1010.9 1010.9 0.0
 
Date/Time
CDT
Temp
°C
App
Temp
°C
Dew
Point
°C
Rel
Hum
%
Delta-T
°C
Wind Press
QNH
hPa
Press
MSL
hPa
Rain since
9am
mm
Dir  Spd
km/h
Gust
km/h
Spd
kts
Gust
kts
17/11:30pm 18.8 18.7 13.9 73 2.8 SSE 7 9 4 5 1011.1 1011.1 0.0
17/11:00pm 19.4 18.8 13.4 68 3.4 SSW 9 11 5 6 1011.4 1011.4 0.0
17/10:30pm 19.9 18.9 13.4 66 3.7 SSE 11 13 6 7 1011.3 1011.3 0.0
17/10:00pm 20.4 19.4 13.4 64 4.0 SE 11 15 6 8 1011.3 1011.3 0.0
17/09:30pm 21.2 19.9 13.6 62 4.4 SE 13 13 7 7 1011.2 1011.2 0.0
17/09:00pm 22.1 22.2 15.4 65 4.0 ESE 9 11 5 6 1010.8 1010.8 0.0
17/08:30pm 22.1 20.3 16.0 68 3.7 SW 20 26 11 14 1010.6 1010.6 0.0
17/08:00pm 21.9 19.8 15.2 65 4.0 SW 20 26 11 14 1010.4 1010.4 0.0
17/07:30pm 22.1 19.8 15.6 66 3.9 SW 22 26 12 14 1010.0 1010.0 0.0
17/07:00pm 22.4 20.2 15.0 63 4.4 SW 20 26 11 14 1010.0 1010.0 0.0
17/06:30pm 23.1 20.3 14.3 57 5.2 SW 22 28 12 15 1010.1 1010.1 0.0
17/06:00pm 23.2 21.0 13.4 54 5.7 SW 17 20 9 11 1010.3 1010.3 0.0
17/05:30pm 23.1 20.6 12.4 51 6.1 SSW 17 22 9 12 1010.6 1010.6 0.0
17/05:00pm 22.9 20.7 13.4 55 5.5 SSW 17 22 9 12 1010.9 1010.9 0.0
17/04:30pm 22.1 19.2 14.0 60 4.7 SW 22 28 12 15 1011.3 1011.3 0.0
17/04:00pm 22.6 19.8 14.2 59 4.9 SW 22 30 12 16 1011.6 1011.6 0.0
17/03:30pm 22.4 18.3 13.8 58 5.0 SW 28 32 15 17 1011.8 1011.8 0.0
17/03:00pm 22.9 19.0 13.2 54 5.6 SW 26 33 14 18 1012.1 1012.1 0.0
17/02:30pm 23.3 19.5 13.7 54 5.6 SW 26 30 14 16 1012.3 1012.3 0.0
17/02:00pm 23.1 20.4 14.5 58 5.1 SW 22 30 12 16 1012.5 1012.5 0.0
17/01:30pm 22.6 19.8 14.2 59 4.9 WSW 22 28 12 15 1012.6 1012.6 0.0
17/01:00pm 22.2 20.2 13.8 59 4.9 WSW 17 22 9 12 1012.7 1012.7 0.0
17/12:30pm 21.6 19.5 13.6 60 4.6 WSW 17 24 9 13 1013.2 1013.2 0.0
17/12:00pm 21.7 19.7 14.0 61 4.5 SW 17 22 9 12 1013.7 1013.7 0.0
17/11:30am 21.7 19.6 13.6 60 4.7 SW 17 22 9 12 1014.0 1014.0 0.0
17/11:00am 21.2 20.2 13.4 61 4.5 SSW 11 19 6 10 1014.2 1014.2 0.0
17/10:30am 21.7 21.0 13.1 58 4.9 NW 9 15 5 8 1014.2 1014.2 0.0
17/10:00am 20.9 20.4 12.8 60 4.6 N 7 13 4 7 1014.5 1014.5 0.0
17/09:30am 20.8 20.3 12.2 58 4.8 NNW 6 11 3 6 1014.7 1014.7 0.0
17/09:00am 19.6 19.0 11.8 60 4.3 E 6 9 3 5 1014.6 1014.6 0.0
17/08:30am 18.8 17.7 11.9 64 3.8 ENE 9 11 5 6 1014.4 1014.4 0.0
17/08:00am 17.4 16.8 12.3 72 2.8 ENE 7 9 4 5 1014.2 1014.2 0.0
17/07:30am 15.4 14.2 11.7 78 2.0 ENE 9 9 5 5 1013.9 1013.9 0.0
17/07:00am 15.0 13.7 11.3 78 2.0 NE 9 11 5 6 1013.6 1013.6 0.0
17/06:30am 14.6 13.7 11.2 80 1.8 NE 7 9 4 5 1013.1 1013.1 0.0
17/06:00am 14.5 13.2 11.3 81 1.7 NE 9 11 5 6 1012.7 1012.7 0.0
17/05:30am 14.5 14.9 11.1 80 1.8 CALM 0 0 0 0 1012.7 1012.7 0.0
17/05:00am 14.9 15.3 11.3 79 1.9 CALM 0 0 0 0 1012.6 1012.6 0.0
17/04:30am 15.1 15.5 11.4 78 2.0 CALM 0 0 0 0 1012.5 1012.5 0.0
17/04:00am 14.8 15.4 12.0 83 1.5 CALM 0 0 0 0 1012.6 1012.6 0.0
17/03:30am 15.1 15.7 12.0 82 1.7 CALM 0 0 0 0 1012.9 1012.9 0.0
17/03:00am 15.4 16.0 11.9 79 1.9 CALM 0 0 0 0 1012.8 1012.8 0.0
17/02:30am 15.6 16.1 11.7 77 2.1 CALM 0 0 0 0 1012.9 1012.9 0.0
17/02:00am 15.7 15.1 11.6 76 2.2 ESE 6 7 3 4 1013.2 1013.2 0.0
17/01:30am 16.1 15.4 11.5 74 2.5 SSE 6 7 3 4 1013.7 1013.7 0.0
17/01:00am 16.4 15.6 11.6 73 2.6 SE 7 9 4 5 1014.1 1014.1 0.0
17/12:30am 17.0 15.4 11.5 70 3.0 SE 11 13 6 7 1014.2 1014.2 0.0
17/12:00am 17.0 15.4 11.5 70 3.0 SE 11 13 6 7 1014.6 1014.6 0.0
 
Date/Time
CDT
Temp
°C
App
Temp
°C
Dew
Point
°C
Rel
Hum
%
Delta-T
°C
Wind Press
QNH
hPa
Press
MSL
hPa
Rain since
9am
mm
Dir  Spd
km/h
Gust
km/h
Spd
kts
Gust
kts
16/11:30pm 17.2 15.2 11.5 69 3.1 SE 13 15 7 8 1014.9 1014.9 0.0
16/11:00pm 17.9 15.9 11.5 66 3.5 SE 13 15 7 8 1014.8 1014.8 0.0
16/10:30pm 18.1 16.2 11.7 66 3.5 SE 13 17 7 9 1014.8 1014.8 0.0
16/10:00pm 18.9 16.1 11.4 61 4.1 ESE 17 19 9 10 1014.7 1014.7 0.0
16/09:30pm 20.0 18.6 13.5 66 3.7 SSE 13 20 7 11 1014.5 1014.5 0.0
16/09:00pm 20.3 18.6 13.5 65 3.9 SSW 15 19 8 10 1014.4 1014.4 0.0
16/08:30pm 20.3 17.9 13.9 66 3.7 SSW 19 26 10 14 1014.4 1014.4 0.0
16/08:00pm 20.7 18.1 13.8 64 4.0 SSW 20 28 11 15 1014.3 1014.3 0.0
16/07:30pm 21.1 18.5 13.8 63 4.2 SW 20 28 11 15 1014.0 1014.0 0.0
16/07:00pm 21.6 18.3 14.0 62 4.4 SW 24 32 13 17 1014.1 1014.1 0.0
16/06:30pm 22.5 19.1 13.7 57 5.1 SW 24 30 13 16 1014.3 1014.3 0.0
16/06:00pm 22.8 19.4 13.7 56 5.3 SW 24 32 13 17 1014.4 1014.4 0.0
16/05:30pm 22.5 19.4 13.3 56 5.3 SW 22 28 12 15 1014.5 1014.5 0.0
16/05:00pm 23.0 19.0 13.1 53 5.7 SW 26 33 14 18 1014.6 1014.6 0.0
16/04:30pm 22.9 18.6 12.1 50 6.1 SW 26 32 14 17 1014.8 1014.8 0.0
16/04:00pm 23.0 19.0 11.8 49 6.3 SW 24 33 13 18 1015.0 1015.0 0.0
16/03:30pm 22.9 18.5 11.7 49 6.3 SW 26 32 14 17 1015.2 1015.2 0.0
16/03:00pm 22.6 18.9 12.8 54 5.6 SW 24 30 13 16 1015.6 1015.6 0.0
16/02:30pm 22.5 18.6 13.3 56 5.3 WSW 26 32 14 17 1015.9 1015.9 0.0
16/02:00pm 22.1 18.5 13.0 56 5.2 WSW 24 32 13 17 1016.0 1016.0 0.0
16/01:30pm 21.8 17.9 12.2 54 5.4 SW 24 32 13 17 1016.1 1016.1 0.0
16/01:00pm 21.7 17.4 11.9 53 5.5 WSW 26 32 14 17 1016.3 1016.3 0.0
16/12:30pm 21.9 18.0 12.1 53 5.5 WSW 24 32 13 17 1016.4 1016.4 0.0
16/12:00pm 22.0 19.0 12.7 55 5.3 SW 20 28 11 15 1016.7 1016.7 0.0
16/11:30am 21.2 18.6 13.1 60 4.6 WSW 19 26 10 14 1016.7 1016.7 0.0
16/11:00am 21.0 18.8 13.3 61 4.4 SW 17 24 9 13 1016.8 1016.8 0.0
16/10:30am 20.7 18.4 12.9 61 4.4 SW 17 26 9 14 1016.8 1016.8 0.0
16/10:00am 20.2 18.2 12.8 62 4.2 SW 15 20 8 11 1016.8 1016.8 0.0
16/09:30am 20.4 18.5 11.7 57 4.8 S 13 19 7 10 1016.9 1016.9 0.0
16/09:00am 19.7 17.4 11.9 60 4.3 SSE 15 22 8 12 1016.9 1016.9 0.0
16/08:30am 19.1 19.2 12.7 66 3.6 ESE 4 9 2 5 1016.7 1016.7 0.0
16/08:00am 18.2 19.2 13.2 72 2.8 CALM 0 0 0 0 1016.4 1016.4 0.0
16/07:30am 17.3 17.9 13.0 76 2.4 SE 2 7 1 4 1016.2 1016.2 0.0
16/07:00am 15.5 16.3 12.6 83 1.6 CALM 0 0 0 0 1015.9 1015.9 0.0
16/06:30am 15.7 16.5 12.6 82 1.7 CALM 0 0 0 0 1015.7 1015.7 0.0
16/06:00am 15.7 16.5 12.6 82 1.7 CALM 0 0 0 0 1015.4 1015.4 0.0
16/05:30am 15.8 15.5 12.7 82 1.7 SW 6 7 3 4 1015.4 1015.4 0.0
16/05:00am 15.8 15.3 12.5 81 1.8 SE 7 7 4 4 1015.4 1015.4 0.0
16/04:30am 16.2 15.9 12.6 79 2.0 SSE 6 7 3 4 1015.1 1015.1 0.0
16/04:00am 16.8 16.2 12.4 75 2.4 S 7 9 4 5 1015.1 1015.1 0.0
16/03:30am 17.5 15.8 12.6 73 2.7 SSE 13 15 7 8 1015.1 1015.1 0.0
16/03:00am 17.7 16.0 12.5 71 2.9 SSE 13 15 7 8 1015.3 1015.3 0.0
16/02:30am 17.8 16.0 12.2 70 3.1 SSE 13 15 7 8 1015.5 1015.5 0.0
16/02:00am 16.9 15.5 12.2 74 2.6 SSE 11 15 6 8 1015.7 1015.7 0.0
16/01:30am 17.0 15.9 12.1 73 2.7 SSE 9 11 5 6 1015.5 1015.5 0.0
16/01:00am 17.8 16.4 12.2 70 3.1 SSE 11 17 6 9 1015.6 1015.6 0.0
16/12:30am 18.3 16.5 12.1 67 3.4 SSE 13 19 7 10 1015.5 1015.5 0.0
16/12:00am 18.9 16.2 11.6 62 4.0 S 17 22 9 12 1015.4 1015.4 0.0
 
Date/Time
CDT
Temp
°C
App
Temp
°C
Dew
Point
°C
Rel
Hum
%
Delta-T
°C
Wind Press
QNH
hPa
Press
MSL
hPa
Rain since
9am
mm
Dir  Spd
km/h
Gust
km/h
Spd
kts
Gust
kts
15/11:30pm 19.1 17.1 11.6 62 4.1 S 13 17 7 9 1015.6 1015.6 0.0
15/11:00pm 19.5 17.5 11.5 60 4.4 SSE 13 19 7 10 1015.8 1015.8 0.0
15/10:30pm 19.8 17.5 11.6 59 4.5 S 15 19 8 10 1015.8 1015.8 0.0
15/10:00pm 19.9 17.3 12.0 60 4.4 S 17 22 9 12 1015.9 1015.9 0.0
15/09:30pm 20.0 17.6 12.7 63 4.1 SSW 17 26 9 14 1015.9 1015.9 0.0
15/09:00pm 20.0 16.9 12.1 60 4.4 SSW 20 28 11 15 1015.5 1015.5 0.0
15/08:30pm 20.3 17.4 12.3 60 4.5 SSW 19 28 10 15 1015.6 1015.6 0.0
15/08:00pm 20.4 17.5 12.8 61 4.3 SSW 20 28 11 15 1015.6 1015.6 0.0
15/07:30pm 20.4 18.1 13.0 62 4.2 SW 17 22 9 12 1015.7 1015.7 0.0
15/07:00pm 20.5 17.5 12.1 58 4.7 SW 19 26 10 14 1015.6 1015.6 0.0
15/06:30pm 20.7 17.7 12.1 58 4.8 SW 19 26 10 14 1015.7 1015.7 0.0
15/06:00pm 20.9 17.8 11.7 55 5.1 SW 19 28 10 15 1015.9 1015.9 0.0
15/05:30pm 20.8 18.2 12.0 57 4.9 SW 17 22 9 12 1016.1 1016.1 0.0
15/05:00pm 20.8 18.4 11.4 55 5.2 SW 15 20 8 11 1016.3 1016.3 0.0
15/04:30pm 21.1 18.4 10.2 49 5.9 WSW 15 22 8 12 1016.3 1016.3 0.0
15/04:00pm 21.4 19.3 9.9 48 6.2 SW 11 19 6 10 1016.2 1016.2 0.0
15/03:30pm 21.6 18.8 11.3 52 5.7 SSW 17 24 9 13 1016.7 1016.7 0.0
15/03:00pm 20.6 17.0 10.5 52 5.5 SW 20 28 11 15 1017.0 1017.0 0.0
15/02:30pm 20.8 17.9 9.8 49 5.9 SW 15 26 8 14 1017.1 1017.1 0.0
15/02:00pm 20.5 17.7 9.9 50 5.7 SW 15 22 8 12 1017.2 1017.2 0.0
15/01:30pm 21.9 18.9 10.8 49 6.1 WSW 17 24 9 13 1017.5 1017.5 0.0
15/01:00pm 21.1 18.8 10.6 51 5.7 W 13 19 7 10 1017.6 1017.6 0.0
15/12:30pm 20.7 17.1 9.9 50 5.8 W 19 26 10 14 1017.8 1017.8 0.0
15/12:00pm 20.4 17.7 10.2 52 5.5 W 15 22 8 12 1017.8 1017.8 0.0

Other Formats:

Comma delimited format used in spreadsheet applications
http://www.bom.gov.au/fwo/IDS60801/IDS60801.94672.axf

JavaScript Object Notation format (JSON) in row-major order
http://www.bom.gov.au/fwo/IDS60801/IDS60801.94672.json